Terminal Aerodrome Forecast
Issued by NWS Charleston, WV

Home | Current Version | Previous Version | Text Only | Print | Product List | Glossary On
Versions: 1 2 3 4 5 6 7 8 9 10 11 12 13 14 15 16 17 18 19 20 21 22 23 24 25 26 27
000
FTUS41 KRLX 221100
TAFPKB
TAF
KPKB 221126Z 2212/2312 VRB03KT 6SM BR SCT035 BKN080
     FM221400 VRB03KT 4SM SHRA BR BKN025 BKN080
      TEMPO 2214/2218 2SM +TSRA BR OVC020CB
     FM221800 23005KT 4SM SHRA BR VCTS BKN025CB
     FM222300 VRB03KT 6SM BR BKN025
     FM230300 VRB03KT 4SM BR BKN025=

USA.gov is the U.S. government's official web portal to all federal, state and local government web resources and services.